Flight Track Log - Related Links

Times and Time Zones

All times are in EDT time to prevent confusion due to time zone crossing. See the FLG3995 flight status page for this flight to view local times or setup timezone preferences in your user account.

Time Position Orientation Groundspeed Altitude Reporting Facility
EDT Latitude Longitude Course Direction KTS MPH feet Rate Location/Type
Sat 07:40:46 PM 42.2236 -83.3556 352° North 138 159 1,500  Level Cleveland Center
Sat 07:41:59 PM 42.2817 -83.3664 352° North 199 229 4,300 2,148 Climbing Cleveland Center
Sat 07:42:07 PM 42.2856 -83.3658 North 197 227 4,400 2,630 Climbing Cleveland Center
Sat 07:43:12 PM 42.3619 -83.3836 350° North 260 299 7,500 2,705 Climbing Cleveland Center
Sat 07:44:09 PM 42.3828 -83.4556 291° West 265 305 9,900 1,456 Climbing Cleveland Center
Sat 07:44:55 PM 42.3672 -83.5567 258° West 349 402 10,000 197 Climbing Cleveland Center
Sat 07:45:10 PM 42.3625 -83.5800 255° West 334 384 10,100  Climbing Cleveland Center
Sat 07:45:56 PM 42.3464 -83.6864 258° West 357 411 10,000  Descending Cleveland Center
Sat 07:46:11 PM 42.3436 -83.7003 255° West 349 402 10,100 79 Climbing Cleveland Center
Sat 07:47:12 PM 42.3228 -83.8308 258° West 357 411 10,100 -49 Level Cleveland Center
Sat 07:48:13 PM 42.2978 -83.9872 258° West 357 411 10,000 -49 Descending Cleveland Center
Sat 07:49:14 PM 42.2764 -84.1172 258° West 357 411 10,000 49 Level Cleveland Center
Sat 07:50:15 PM 42.2617 -84.2486 261° West 356 410 10,100 49 Climbing Cleveland Center
Sat 07:51:16 PM 42.2614 -84.3819 270° West 358 412 10,100 -61 Level Cleveland Center
Sat 07:51:54 PM 42.2597 -84.4519 268° West 358 412 10,000 -61 Descending Chicago Center
Sat 07:52:55 PM 42.2567 -84.5856 268° West 358 412 10,000  Level Chicago Center
Sat 07:53:56 PM 42.2544 -84.7461 269° West 357 411 10,000  Level Chicago Center
Sat 07:54:57 PM 42.2228 -84.8717 251° West 372 428 10,000  Level Chicago Center
Sat 07:55:58 PM 42.1789 -84.9939 244° Southwest 365 420 10,000 -488 Level Chicago Center
Sat 07:57:00 PM 42.1633 -85.0964 258° West 316 364 9,000 -1,512 Descending Chicago Center
Sat 07:58:01 PM 42.1500 -85.1944 260° West 281 323 6,900 -2,112 Descending Chicago Center
Sat 07:59:05 PM 42.1344 -85.3092 260° West 266 306 4,600 -1,920 Descending Chicago Center
Sat 08:00:06 PM 42.1211 -85.4039 259° West 261 300 2,900 -1,082 Descending Chicago Center
Sat 08:01:07 PM 42.1347 -85.4850 283° West 235 270 2,400 -393 Descending Chicago Center
Sat 08:02:08 PM 42.1617 -85.5339 307° West 193 222 2,100 -443 Descending Chicago Center
Sat 08:03:09 PM 42.1997 -85.5456 347° North 159 183 1,500 -590 Descending Chicago Center
Sat 08:05:00 PM 42.2333 -85.5500 298° West  Level FlightAware Approximate
Sat 08:12:00 PM 42.2344 -85.5516 298° West  Level Estimated

Login

Don't have an account? Register now (free) for customized features, flight alerts, and more!